createdAt,value
2022-08-05T00:01:01.033Z,100536.31
2022-08-05T00:03:22.457Z,100524.84
2022-08-05T00:06:01.699Z,100536.53
2022-08-05T00:07:59.625Z,100431.31
2022-08-05T00:10:05.258Z,100500.50
2022-08-05T00:12:08.486Z,100539.09
2022-08-05T00:14:17.524Z,100522.75
2022-08-05T00:16:36.150Z,100488.13
2022-08-05T00:18:49.229Z,100522.88
2022-08-05T00:20:53.359Z,100463.44
2022-08-05T00:22:59.574Z,100467.38
2022-08-05T00:25:08.350Z,100517.34
2022-08-05T00:27:16.742Z,100503.03
2022-08-05T00:29:25.406Z,100466.06
2022-08-05T00:31:53.807Z,100459.00
2022-08-05T00:34:54.019Z,100471.06
2022-08-05T00:37:08.875Z,100516.97
2022-08-05T00:39:13.982Z,100521.75
2022-08-05T00:41:51.939Z,100540.13
2022-08-05T00:43:59.535Z,100531.63
2022-08-05T00:46:03.516Z,100493.16
2022-08-05T00:48:09.466Z,100544.22
2022-08-05T00:50:20.947Z,100538.28
2022-08-05T00:52:28.748Z,100553.13
2022-08-05T00:54:45.625Z,100493.88
2022-08-05T00:56:58.188Z,100543.31
2022-08-05T00:59:02.025Z,100556.16
2022-08-05T01:01:11.558Z,100560.59
2022-08-05T01:03:22.769Z,100498.34
2022-08-05T01:05:27.575Z,100530.78
2022-08-05T01:07:31.770Z,100526.66
2022-08-05T01:09:34.526Z,100439.25
2022-08-05T01:11:42.829Z,100550.16
2022-08-05T01:14:08.867Z,100553.28
2022-08-05T01:16:40.729Z,100561.53
2022-08-05T01:19:00.765Z,100555.22
2022-08-05T01:21:50.593Z,100564.53
2022-08-05T01:24:14.283Z,100564.53
2022-08-05T01:26:33.521Z,100562.50
2022-08-05T01:28:49.812Z,100563.13
2022-08-05T01:31:04.909Z,100537.47
2022-08-05T01:33:10.502Z,100538.72
2022-08-05T01:35:51.557Z,100535.22
2022-08-05T01:37:55.534Z,100542.63
2022-08-05T01:40:05.684Z,100553.81
2022-08-05T01:42:14.176Z,100544.88
2022-08-05T01:44:20.895Z,100530.94
2022-08-05T01:46:41.942Z,100536.09
2022-08-05T01:48:49.742Z,100507.41
2022-08-05T01:50:53.677Z,100561.97
2022-08-05T01:53:04.820Z,100534.84
2022-08-05T01:55:10.231Z,100557.25
2022-08-05T01:58:29.944Z,100501.72
2022-08-05T02:00:11.680Z,100517.88
2022-08-05T02:02:28.475Z,100537.69
2022-08-05T02:04:36.975Z,100543.25
2022-08-05T02:06:45.375Z,100541.84
2022-08-05T02:08:58.306Z,100528.91
2022-08-05T02:11:11.970Z,100557.63
2022-08-05T02:13:19.624Z,100552.25
2022-08-05T02:15:37.255Z,100551.19
2022-08-05T02:18:33.037Z,100520.75
2022-08-05T02:20:25.451Z,100546.13
2022-08-05T02:22:52.589Z,100514.91
2022-08-05T02:25:14.853Z,100553.88
2022-08-05T02:27:20.145Z,100553.56
2022-08-05T02:29:58.468Z,100521.56
2022-08-05T02:31:59.327Z,100530.38
2022-08-05T02:34:13.629Z,100510.19
2022-08-05T02:36:20.918Z,100531.63
2022-08-05T02:38:35.360Z,100531.34
2022-08-05T02:41:17.321Z,100550.41
2022-08-05T02:43:34.579Z,100543.50
2022-08-05T02:45:57.943Z,100439.41
2022-08-05T02:48:11.606Z,100531.50
2022-08-05T02:50:24.445Z,100510.34
2022-08-05T02:52:57.870Z,100482.13
2022-08-05T02:55:10.832Z,100499.97
2022-08-05T02:58:11.079Z,100513.97
2022-08-05T02:59:50.717Z,100527.41
2022-08-05T03:02:27.633Z,100501.84
2022-08-05T03:04:39.286Z,100507.69
2022-08-05T03:06:54.483Z,100491.78
2022-08-05T03:09:36.387Z,100498.06
2022-08-05T03:11:54.979Z,100502.50
2022-08-05T03:14:03.245Z,100522.97
2022-08-05T03:16:06.403Z,100512.59
2022-08-05T03:18:13.067Z,100512.59
2022-08-05T03:20:20.638Z,100513.97
2022-08-05T03:22:32.536Z,100489.19
2022-08-05T03:24:35.524Z,100462.72
2022-08-05T03:26:39.149Z,100506.28
2022-08-05T03:28:41.850Z,100501.19
2022-08-05T03:30:45.284Z,100501.03
2022-08-05T03:32:49.833Z,100522.63
2022-08-05T03:34:53.010Z,100482.72
2022-08-05T03:36:57.109Z,100471.22
2022-08-05T03:39:08.012Z,100467.28
2022-08-05T03:41:17.578Z,100516.34
2022-08-05T03:44:08.699Z,100487.94
2022-08-05T03:45:57.371Z,100531.63
2022-08-05T03:48:01.012Z,100511.59
2022-08-05T03:50:04.540Z,100495.19
2022-08-05T03:52:48.658Z,100522.63
2022-08-05T03:55:50.984Z,100507.66
2022-08-05T03:57:16.328Z,100531.81
2022-08-05T03:59:54.950Z,100488.72
2022-08-05T04:02:01.317Z,100511.91
2022-08-05T04:04:09.853Z,100510.97
2022-08-05T04:06:13.415Z,100525.94
2022-08-05T04:08:35.174Z,100530.22
2022-08-05T04:10:39.894Z,100518.06
2022-08-05T04:14:45.284Z,100481.78
2022-08-05T04:16:48.987Z,100535.75
2022-08-05T04:18:54.786Z,100541.72
2022-08-05T04:21:00.455Z,100413.88
2022-08-05T04:23:03.706Z,100510.97
2022-08-05T04:25:06.903Z,100544.56
2022-08-05T04:27:15.211Z,100557.81
2022-08-05T04:29:19.821Z,100524.50
2022-08-05T04:31:33.997Z,100554.81
2022-08-05T04:34:18.549Z,100547.63
2022-08-05T04:36:44.874Z,100533.84
2022-08-05T04:38:54.784Z,100538.22
2022-08-05T04:40:59.640Z,100534.34
2022-08-05T04:43:06.874Z,100535.84
2022-08-05T04:45:22.946Z,100426.13
2022-08-05T04:47:42.975Z,100503.84
2022-08-05T04:50:02.801Z,100534.28
2022-08-05T04:52:12.579Z,100463.34
2022-08-05T04:54:15.177Z,100480.13
2022-08-05T04:56:34.693Z,100506.38
2022-08-05T04:58:39.901Z,100525.50
2022-08-05T05:00:43.516Z,100484.19
2022-08-05T05:02:53.210Z,100467.78
2022-08-05T05:05:01.920Z,100523.78
2022-08-05T05:07:09.573Z,100516.72
2022-08-05T05:09:17.162Z,100537.78
2022-08-05T05:11:42.018Z,100546.69
2022-08-05T05:13:53.011Z,100490.16
2022-08-05T05:16:01.885Z,100566.56
2022-08-05T05:18:09.610Z,100561.84
2022-08-05T05:20:14.673Z,100556.34
2022-08-05T05:22:24.364Z,100568.81
2022-08-05T05:24:56.071Z,100542.13
2022-08-05T05:26:51.917Z,100498.84
2022-08-05T05:28:55.099Z,100546.16
2022-08-05T05:31:05.683Z,100556.72
2022-08-05T05:33:23.262Z,100555.38
2022-08-05T05:35:31.656Z,100558.06
2022-08-05T05:38:31.912Z,100601.75
2022-08-05T05:40:35.183Z,100597.38
2022-08-05T05:42:39.112Z,100533.19
2022-08-05T05:45:01.509Z,100598.03
2022-08-05T05:47:21.591Z,100611.72
2022-08-05T05:49:25.113Z,100628.56
2022-08-05T05:51:50.446Z,100624.50
2022-08-05T05:53:58.618Z,100653.03
2022-08-05T05:56:03.116Z,100647.16
2022-08-05T05:58:56.948Z,100688.94
2022-08-05T06:01:15.516Z,100676.19
2022-08-05T06:03:40.537Z,100678.16
2022-08-05T06:05:58.387Z,100700.28
2022-08-05T06:08:01.993Z,100659.00
2022-08-05T06:10:10.878Z,100663.59
2022-08-05T06:12:13.474Z,100626.34
2022-08-05T06:14:18.287Z,100682.94
2022-08-05T06:16:29.864Z,100664.66
2022-08-05T06:18:36.578Z,100664.38
2022-08-05T06:20:42.114Z,100654.28
2022-08-05T06:22:50.589Z,100663.72
2022-08-05T06:24:53.460Z,100674.25
2022-08-05T06:26:56.142Z,100689.78
2022-08-05T06:28:58.879Z,100672.13
2022-08-05T06:31:10.963Z,100649.13
2022-08-05T06:33:19.286Z,100675.66
2022-08-05T06:36:07.556Z,100686.44
2022-08-05T06:38:17.029Z,100679.25
2022-08-05T06:40:21.350Z,100672.72
2022-08-05T06:42:29.461Z,100690.25
2022-08-05T06:44:32.116Z,100689.91
2022-08-05T06:46:35.095Z,100693.63
2022-08-05T06:48:56.065Z,100676.06
2022-08-05T06:51:09.398Z,100699.75
2022-08-05T06:53:22.448Z,100684.53
2022-08-05T06:55:36.577Z,100710.13
2022-08-05T06:58:03.889Z,100714.78
2022-08-05T07:00:22.324Z,100677.81
2022-08-05T07:02:53.833Z,100712.06
2022-08-05T07:05:37.231Z,100706.25
2022-08-05T07:07:43.276Z,100689.09
2022-08-05T07:09:55.439Z,100705.94
2022-08-05T07:12:03.600Z,100726.59
2022-08-05T07:14:29.649Z,100707.28
2022-08-05T07:17:56.712Z,100700.91
2022-08-05T07:19:15.471Z,100723.00
2022-08-05T07:21:25.925Z,100697.91
2022-08-05T07:23:31.059Z,100698.50
2022-08-05T07:25:55.408Z,100687.34
2022-08-05T07:28:23.031Z,100717.13
2022-08-05T07:30:38.370Z,100736.19
2022-08-05T07:32:42.506Z,100684.81
2022-08-05T07:34:57.819Z,100727.75
2022-08-05T07:37:01.657Z,100705.69
2022-08-05T07:39:24.499Z,100661.81
2022-08-05T07:42:09.287Z,100687.44
2022-08-05T07:43:58.975Z,100709.38
2022-08-05T07:46:24.761Z,100675.69
2022-08-05T07:49:01.499Z,100699.94
2022-08-05T07:51:02.586Z,100689.16
2022-08-05T07:53:14.889Z,100679.16
2022-08-05T07:56:05.589Z,100657.09
2022-08-05T07:58:57.878Z,100643.19
2022-08-05T08:00:45.074Z,100656.81
2022-08-05T08:03:44.797Z,100682.44
2022-08-05T08:06:38.499Z,100678.97
2022-08-05T08:08:43.647Z,100664.47
2022-08-05T08:10:48.786Z,100592.25
2022-08-05T08:12:58.498Z,100689.75
2022-08-05T08:15:15.680Z,100719.66
2022-08-05T08:17:52.772Z,100727.03
2022-08-05T08:20:22.636Z,100607.78
2022-08-05T08:22:36.557Z,100717.25
2022-08-05T08:24:51.284Z,100730.69
2022-08-05T08:28:36.293Z,100743.97
2022-08-05T08:31:15.027Z,100758.50
2022-08-05T08:33:20.465Z,100728.09
2022-08-05T08:35:26.620Z,100733.31
2022-08-05T08:37:29.865Z,100749.47
2022-08-05T08:39:49.424Z,100682.50
2022-08-05T08:42:32.478Z,100643.75
2022-08-05T08:45:16.625Z,100756.34
2022-08-05T08:47:21.899Z,100735.69
2022-08-05T08:50:11.319Z,100716.81
2022-08-05T08:52:18.284Z,100774.06
2022-08-05T08:54:22.200Z,100780.91
2022-08-05T08:56:30.787Z,100700.88
2022-08-05T08:59:09.817Z,100794.69
2022-08-05T09:01:25.902Z,100819.44
2022-08-05T09:04:30.342Z,100826.72
2022-08-05T09:06:40.427Z,100827.53
2022-08-05T09:09:09.580Z,100788.06
2022-08-05T09:11:17.977Z,100791.97
2022-08-05T09:14:09.535Z,100774.53
2022-08-05T09:16:20.840Z,100811.72
2022-08-05T09:18:30.346Z,100826.16
2022-08-05T09:20:37.250Z,100798.09
2022-08-05T09:23:19.820Z,100816.44
2022-08-05T09:26:45.151Z,100823.22
2022-08-05T09:28:49.635Z,100791.25
2022-08-05T09:31:22.753Z,100769.22
2022-08-05T09:33:56.710Z,100763.81
2022-08-05T09:36:16.118Z,100752.56
2022-08-05T09:38:27.521Z,100691.25
2022-08-05T09:40:52.558Z,100726.66
2022-08-05T09:42:56.976Z,100777.88
2022-08-05T09:45:17.449Z,100709.09
2022-08-05T09:47:49.003Z,100750.94
2022-08-05T09:50:05.952Z,100734.66
2022-08-05T09:52:44.974Z,100726.06
2022-08-05T09:55:58.189Z,100735.81
2022-08-05T09:57:43.502Z,100735.19
2022-08-05T09:59:48.355Z,100742.91
2022-08-05T10:01:58.350Z,100760.28
2022-08-05T10:04:10.446Z,100771.16
2022-08-05T10:06:15.989Z,100717.53
2022-08-05T10:08:37.749Z,100777.44
2022-08-05T10:10:45.260Z,100783.09
2022-08-05T10:13:02.975Z,100790.13
2022-08-05T10:15:41.423Z,100798.47
2022-08-05T10:18:06.233Z,100754.25
2022-08-05T10:20:12.894Z,100784.97
2022-08-05T10:22:29.693Z,100760.34
2022-08-05T10:24:34.769Z,100801.75
2022-08-05T10:26:55.006Z,100801.63
2022-08-05T10:29:05.525Z,100737.97
2022-08-05T10:32:51.788Z,100763.38
2022-08-05T10:33:44.793Z,100780.25
2022-08-05T10:35:58.989Z,100730.97
2022-08-05T10:38:08.418Z,100677.63
2022-08-05T10:40:43.431Z,100738.84
2022-08-05T10:42:52.661Z,100718.91
2022-08-05T10:44:59.054Z,100705.59
2022-08-05T10:47:26.069Z,100725.47
2022-08-05T10:49:33.675Z,100707.41
2022-08-05T10:52:00.749Z,100737.63
2022-08-05T10:54:05.796Z,100720.69
2022-08-05T10:56:31.347Z,100752.81
2022-08-05T10:58:36.169Z,100745.41
2022-08-05T11:01:02.794Z,100744.31
2022-08-05T11:03:24.720Z,100722.38
2022-08-05T11:05:31.767Z,100771.28
2022-08-05T11:08:33.760Z,100806.81
2022-08-05T11:10:50.427Z,100777.06
2022-08-05T11:13:06.601Z,100808.34
2022-08-05T11:15:59.394Z,100774.09
2022-08-05T11:18:34.482Z,100793.34
2022-08-05T11:20:41.935Z,100814.03
2022-08-05T11:22:54.096Z,100802.50
2022-08-05T11:26:05.371Z,100811.28
2022-08-05T11:28:00.637Z,100808.03
2022-08-05T11:30:08.396Z,100810.66
2022-08-05T11:32:31.139Z,100791.63
2022-08-05T11:34:51.665Z,100800.63
2022-08-05T11:36:56.863Z,100794.25
2022-08-05T11:39:00.239Z,100787.00
2022-08-05T11:41:35.604Z,100792.59
2022-08-05T11:44:06.692Z,100747.28
2022-08-05T11:46:16.088Z,100804.59
2022-08-05T11:48:28.140Z,100805.00
2022-08-05T11:50:39.116Z,100798.19
2022-08-05T11:52:44.037Z,100798.69
2022-08-05T11:54:55.061Z,100778.50
2022-08-05T11:58:08.110Z,100791.66
2022-08-05T11:59:54.671Z,100806.44
2022-08-05T12:02:24.011Z,100797.25
2022-08-05T12:04:46.033Z,100779.81
2022-08-05T12:07:01.901Z,100806.47
2022-08-05T12:09:05.721Z,100789.69
2022-08-05T12:11:10.117Z,100797.53
2022-08-05T12:13:48.021Z,100802.47
2022-08-05T12:15:49.658Z,100805.22
2022-08-05T12:18:04.425Z,100780.19
2022-08-05T12:20:25.725Z,100793.72
2022-08-05T12:22:32.513Z,100773.56
2022-08-05T12:24:40.443Z,100808.75
2022-08-05T12:26:53.935Z,100805.53
2022-08-05T12:28:56.603Z,100797.34
2022-08-05T12:31:02.314Z,100782.22
2022-08-05T12:33:06.895Z,100775.38
2022-08-05T12:35:37.153Z,100659.53
2022-08-05T12:37:45.955Z,100798.03
2022-08-05T12:39:55.023Z,100797.69
2022-08-05T12:42:21.217Z,100800.84
2022-08-05T12:44:33.946Z,100772.78
2022-08-05T12:46:40.087Z,100799.34
2022-08-05T12:48:48.086Z,100768.13
2022-08-05T12:51:21.779Z,100789.53
2022-08-05T12:53:44.860Z,100790.75
2022-08-05T12:55:58.399Z,100772.50
2022-08-05T12:58:50.396Z,100771.09
2022-08-05T13:02:00.258Z,100788.22
2022-08-05T13:02:55.473Z,100757.84
2022-08-05T13:04:59.212Z,100793.97
2022-08-05T13:07:05.735Z,100803.59
2022-08-05T13:09:14.380Z,100794.44
2022-08-05T13:12:01.624Z,100770.97
2022-08-05T13:14:04.608Z,100774.97
2022-08-05T13:16:16.869Z,100711.84
2022-08-05T13:18:20.544Z,100780.28
2022-08-05T13:20:26.084Z,100686.41
2022-08-05T13:22:31.418Z,100793.78
2022-08-05T13:24:57.156Z,100785.94
2022-08-05T13:26:56.844Z,100743.09
2022-08-05T13:29:00.864Z,100775.66
2022-08-05T13:31:14.076Z,100678.66
2022-08-05T13:34:23.297Z,100711.34
2022-08-05T13:35:42.820Z,100768.16
2022-08-05T13:38:04.934Z,100786.66
2022-08-05T13:40:13.963Z,100790.09
2022-08-05T13:43:45.618Z,100782.19
2022-08-05T13:45:57.449Z,100781.69
2022-08-05T13:48:09.518Z,100757.84
2022-08-05T13:50:27.975Z,100778.97
2022-08-05T13:52:41.856Z,100763.59
2022-08-05T13:54:53.335Z,100789.13
2022-08-05T13:56:56.299Z,100706.47
2022-08-05T13:58:58.913Z,100765.22
2022-08-05T14:01:09.898Z,100759.72
2022-08-05T14:03:12.636Z,100757.63
2022-08-05T14:05:19.596Z,100782.56
2022-08-05T14:08:02.651Z,100790.81
2022-08-05T14:10:13.596Z,100767.81
2022-08-05T14:12:32.100Z,100784.34
2022-08-05T14:14:35.539Z,100785.38
2022-08-05T14:16:38.616Z,100783.34
2022-08-05T14:18:46.282Z,100693.28
2022-08-05T14:20:49.092Z,100791.09
2022-08-05T14:23:01.546Z,100767.88
2022-08-05T14:25:21.381Z,100793.06
2022-08-05T14:27:24.979Z,100792.28
2022-08-05T14:29:46.269Z,100801.56
2022-08-05T14:32:03.114Z,100798.00
2022-08-05T14:34:35.447Z,100756.78
2022-08-05T14:36:39.479Z,100778.72
2022-08-05T14:38:42.239Z,100793.59
2022-08-05T14:40:48.239Z,100724.16
2022-08-05T14:42:52.740Z,100747.13
2022-08-05T14:44:56.705Z,100760.00
2022-08-05T14:46:59.442Z,100774.94
2022-08-05T14:49:07.579Z,100789.72
2022-08-05T14:51:18.856Z,100749.69
2022-08-05T14:53:22.944Z,100771.09
2022-08-05T14:55:39.496Z,100800.22
2022-08-05T14:57:54.663Z,100739.13
2022-08-05T14:59:59.006Z,100787.41
2022-08-05T15:02:03.407Z,100769.81
2022-08-05T15:04:20.431Z,100780.09
2022-08-05T15:06:28.132Z,100738.56
2022-08-05T15:08:37.946Z,100780.81
2022-08-05T15:10:55.441Z,100812.97
2022-08-05T15:13:04.217Z,100803.19
2022-08-05T15:15:13.606Z,100772.31
2022-08-05T15:17:46.501Z,100785.00
2022-08-05T15:19:49.028Z,100803.38
2022-08-05T15:21:51.861Z,100813.59
2022-08-05T15:23:54.590Z,100732.25
2022-08-05T15:26:02.415Z,100770.28
2022-08-05T15:28:05.993Z,100803.72
2022-08-05T15:30:10.905Z,100756.25
2022-08-05T15:32:17.728Z,100830.78
2022-08-05T15:34:32.820Z,100803.47
2022-08-05T15:36:36.475Z,100791.59
2022-08-05T15:38:42.130Z,100826.94
2022-08-05T15:41:03.270Z,100745.78
2022-08-05T15:43:12.926Z,100814.41
2022-08-05T15:45:37.884Z,100756.31
2022-08-05T15:47:42.932Z,100847.06
2022-08-05T15:49:56.599Z,100850.69
2022-08-05T15:52:04.373Z,100847.88
2022-08-05T15:54:17.005Z,100831.09
2022-08-05T15:56:21.383Z,100865.75
2022-08-05T15:58:25.732Z,100858.44
2022-08-05T16:01:03.555Z,100812.63
2022-08-05T16:02:55.711Z,100840.41
2022-08-05T16:04:58.714Z,100858.50
2022-08-05T16:07:01.601Z,100872.63
2022-08-05T16:09:07.013Z,100912.31
2022-08-05T16:11:14.497Z,100910.13
2022-08-05T16:13:23.374Z,100891.75
2022-08-05T16:15:32.363Z,100896.56
2022-08-05T16:17:35.406Z,100890.66
2022-08-05T16:20:04.368Z,100808.50
2022-08-05T16:22:03.152Z,100933.53
2022-08-05T16:24:12.585Z,100802.19
2022-08-05T16:26:15.664Z,100899.94
2022-08-05T16:28:19.626Z,100875.03
2022-08-05T16:30:25.748Z,100822.81
2022-08-05T16:32:29.872Z,100817.13
2022-08-05T16:34:32.583Z,100836.72
2022-08-05T16:36:36.426Z,100932.00
2022-08-05T16:38:45.394Z,100965.56
2022-08-05T16:41:01.410Z,100927.88
2022-08-05T16:43:04.211Z,100879.13
2022-08-05T16:46:04.248Z,100867.88
2022-08-05T16:47:48.378Z,100966.06
2022-08-05T16:49:58.300Z,100959.44
2022-08-05T16:52:02.718Z,100874.91
2022-08-05T16:54:15.923Z,100966.88
2022-08-05T16:56:22.196Z,100905.13
2022-08-05T16:58:26.284Z,100894.72
2022-08-05T17:00:34.609Z,100924.13
2022-08-05T17:02:40.349Z,101004.00
2022-08-05T17:04:42.956Z,100985.50
2022-08-05T17:07:00.354Z,100998.34
2022-08-05T17:09:05.523Z,100833.66
2022-08-05T17:11:16.706Z,101022.50
2022-08-05T17:13:21.262Z,101018.19
2022-08-05T17:15:48.061Z,101018.25
2022-08-05T17:17:55.042Z,101060.06
2022-08-05T17:19:58.071Z,101040.34
2022-08-05T17:22:01.009Z,101038.47
2022-08-05T17:24:19.909Z,101041.13
2022-08-05T17:26:29.188Z,101004.88
2022-08-05T17:28:31.842Z,101049.59
2022-08-05T17:30:34.471Z,101080.50
2022-08-05T17:32:45.723Z,101048.31
2022-08-05T17:34:49.909Z,100963.38
2022-08-05T17:36:52.682Z,101031.75
2022-08-05T17:38:55.683Z,100978.63
2022-08-05T17:40:58.433Z,101079.22
2022-08-05T17:43:10.234Z,101103.00
2022-08-05T17:45:20.797Z,101102.19
2022-08-05T17:47:24.072Z,101102.63
2022-08-05T17:49:26.662Z,101078.00
2022-08-05T17:51:51.818Z,101086.13
2022-08-05T17:53:54.951Z,101099.84
2022-08-05T17:55:59.801Z,101066.69
2022-08-05T17:58:06.944Z,101086.53
2022-08-05T18:00:14.212Z,101098.44
2022-08-05T18:02:27.358Z,101085.72
2022-08-05T18:04:31.070Z,101118.56
2022-08-05T18:06:35.644Z,100946.94
2022-08-05T18:09:04.191Z,101115.69
2022-08-05T18:11:24.712Z,101151.63
2022-08-05T18:13:44.089Z,101161.28
2022-08-05T18:15:46.925Z,101152.16
2022-08-05T18:18:00.750Z,101100.63
2022-08-05T18:20:06.341Z,101149.47
2022-08-05T18:22:17.856Z,101137.16
2022-08-05T18:24:21.060Z,101113.81
2022-08-05T18:26:29.305Z,101055.53
2022-08-05T18:28:34.419Z,101141.88
2022-08-05T18:30:40.218Z,101158.69
2022-08-05T18:32:43.179Z,101124.09
2022-08-05T18:34:57.630Z,101175.19
2022-08-05T18:37:00.246Z,101089.97
2022-08-05T18:39:09.811Z,101192.34
2022-08-05T18:41:53.710Z,101178.75
2022-08-05T18:44:06.353Z,101170.78
2022-08-05T18:46:10.606Z,101156.47
2022-08-05T18:48:30.628Z,101160.34
2022-08-05T18:50:54.425Z,101177.53
2022-08-05T18:52:57.635Z,101126.72
2022-08-05T18:55:01.050Z,101226.63
2022-08-05T18:57:04.062Z,101116.81
2022-08-05T18:59:42.693Z,101135.81
2022-08-05T19:01:33.188Z,101225.22
2022-08-05T19:03:53.265Z,101216.91
2022-08-05T19:06:11.690Z,101186.00
2022-08-05T19:08:30.491Z,101203.53
2022-08-05T19:10:34.793Z,101254.78
2022-08-05T19:12:40.046Z,101221.63
2022-08-05T19:15:00.909Z,101216.63
2022-08-05T19:17:06.328Z,101222.03
2022-08-05T19:19:10.698Z,101237.03
2022-08-05T19:21:15.899Z,101147.25
2022-08-05T19:23:22.569Z,101219.66
2022-08-05T19:25:43.624Z,101239.47
2022-08-05T19:27:47.024Z,101205.66
2022-08-05T19:29:52.525Z,101230.13
2022-08-05T19:31:57.486Z,101266.31
2022-08-05T19:34:00.121Z,101096.66
2022-08-05T19:36:06.139Z,101267.47
2022-08-05T19:38:09.485Z,101216.94
2022-08-05T19:40:12.723Z,101268.09
2022-08-05T19:42:18.859Z,101262.94
2022-08-05T19:44:44.968Z,101249.75
2022-08-05T19:46:50.095Z,101252.50
2022-08-05T19:48:53.042Z,101172.47
2022-08-05T19:50:56.934Z,101225.59
2022-08-05T19:53:09.525Z,101289.31
2022-08-05T19:56:14.450Z,101260.06
2022-08-05T19:57:49.130Z,101241.50
2022-08-05T20:00:01.367Z,101289.84
2022-08-05T20:02:14.082Z,101271.47
2022-08-05T20:04:16.657Z,101278.09
2022-08-05T20:06:28.892Z,101276.50
2022-08-05T20:08:32.131Z,101212.41
2022-08-05T20:10:34.775Z,101252.22
2022-08-05T20:12:39.495Z,101293.50
2022-08-05T20:14:52.243Z,101303.66
2022-08-05T20:16:55.961Z,101192.72
2022-08-05T20:18:59.169Z,101320.91
2022-08-05T20:21:06.754Z,101332.97
2022-08-05T20:23:17.637Z,101310.97
2022-08-05T20:25:23.295Z,101331.72
2022-08-05T20:27:41.944Z,101341.41
2022-08-05T20:29:57.477Z,101333.00
2022-08-05T20:32:01.235Z,101334.28
2022-08-05T20:34:05.402Z,101355.56
2022-08-05T20:36:11.344Z,101331.44
2022-08-05T20:38:22.677Z,101368.16
2022-08-05T20:40:33.567Z,101356.81
2022-08-05T20:42:36.314Z,101330.66
2022-08-05T20:44:39.329Z,101381.22
2022-08-05T20:46:43.103Z,101391.81
2022-08-05T20:48:50.970Z,101383.94
2022-08-05T20:50:54.150Z,101344.09
2022-08-05T20:52:56.772Z,101366.63
2022-08-05T20:55:55.472Z,101398.34
2022-08-05T20:57:41.928Z,101400.47
2022-08-05T21:00:10.687Z,101340.50
2022-08-05T21:02:07.465Z,101358.09
2022-08-05T21:04:12.055Z,101390.44
2022-08-05T21:06:27.782Z,101408.63
2022-08-05T21:08:35.955Z,101399.28
2022-08-05T21:10:49.186Z,101404.69
2022-08-05T21:12:58.341Z,101403.63
2022-08-05T21:15:14.689Z,101381.59
2022-08-05T21:17:17.225Z,101405.56
2022-08-05T21:19:20.109Z,101387.97
2022-08-05T21:21:25.992Z,101417.84
2022-08-05T21:23:42.537Z,101422.66
2022-08-05T21:25:45.201Z,101433.88
2022-08-05T21:27:47.842Z,101416.09
2022-08-05T21:29:56.604Z,101428.53
2022-08-05T21:32:02.895Z,101419.84
2022-08-05T21:34:05.434Z,101412.25
2022-08-05T21:36:10.143Z,101403.84
2022-08-05T21:38:12.734Z,101408.63
2022-08-05T21:40:16.561Z,101415.00
2022-08-05T21:42:40.833Z,101421.41
2022-08-05T21:44:58.120Z,101434.69
2022-08-05T21:47:01.301Z,101437.38
2022-08-05T21:49:07.371Z,101412.63
2022-08-05T21:52:16.035Z,101275.16
2022-08-05T21:53:34.020Z,101460.31
2022-08-05T21:56:01.234Z,101429.97
2022-08-05T21:58:02.930Z,101424.09
2022-08-05T22:00:11.792Z,101449.66
2022-08-05T22:02:17.749Z,101422.78
2022-08-05T22:04:25.457Z,101415.06
2022-08-05T22:06:35.182Z,101426.00
2022-08-05T22:08:42.541Z,101425.75
2022-08-05T22:10:45.479Z,101448.94
2022-08-05T22:12:50.658Z,101479.03
2022-08-05T22:14:54.231Z,101458.00
2022-08-05T22:17:01.469Z,101475.06
2022-08-05T22:19:15.108Z,101456.38
2022-08-05T22:21:29.310Z,101469.16
2022-08-05T22:24:02.034Z,101459.63
2022-08-05T22:26:29.922Z,101363.84
2022-08-05T22:28:32.960Z,101434.63
2022-08-05T22:30:55.859Z,101504.13
2022-08-05T22:32:59.523Z,101499.31
2022-08-05T22:35:02.201Z,101456.16
2022-08-05T22:37:05.525Z,101429.84
2022-08-05T22:39:09.579Z,101479.63
2022-08-05T22:41:13.022Z,101462.31
2022-08-05T22:43:37.138Z,101497.22
2022-08-05T22:45:40.538Z,101496.66
2022-08-05T22:47:49.679Z,101482.28
2022-08-05T22:50:20.672Z,101491.66
2022-08-05T22:52:37.538Z,101488.78
2022-08-05T22:54:40.385Z,101471.50
2022-08-05T22:56:51.442Z,101456.63
2022-08-05T22:58:56.403Z,101440.44
2022-08-05T23:00:59.046Z,101463.88
2022-08-05T23:03:01.932Z,101457.47
2022-08-05T23:05:07.583Z,101434.59
2022-08-05T23:07:10.221Z,101323.03
2022-08-05T23:09:27.262Z,101479.09
2022-08-05T23:11:42.053Z,101475.66
2022-08-05T23:13:51.801Z,101476.16
2022-08-05T23:15:54.466Z,101463.94
2022-08-05T23:18:02.238Z,101458.84
2022-08-05T23:20:17.679Z,101496.69
2022-08-05T23:22:27.162Z,101512.94
2022-08-05T23:24:30.630Z,101524.66
2022-08-05T23:26:33.298Z,101496.69
2022-08-05T23:28:36.041Z,101511.59
2022-08-05T23:30:43.539Z,101522.00
2022-08-05T23:32:46.590Z,101477.50
2022-08-05T23:34:52.099Z,101544.13
2022-08-05T23:36:55.111Z,101505.47
2022-08-05T23:38:57.776Z,101398.56
2022-08-05T23:41:00.334Z,101511.31
2022-08-05T23:43:24.527Z,101478.75
2022-08-05T23:45:27.783Z,101526.78
2022-08-05T23:47:35.738Z,101547.53
2022-08-05T23:49:52.126Z,101547.25
2022-08-05T23:52:17.380Z,101548.00
2022-08-05T23:54:25.508Z,101543.72
2022-08-05T23:56:28.767Z,101555.97
2022-08-05T23:58:32.700Z,101557.53
